Time;durP1;ratioP1;P1;durP2;ratioP2;P2;SDS_P1;SDS_P2;PMS_P1;PMS_P2;Temp;Humidity;BMP_temperature;BMP_pressure;BME280_temperature;BME280_humidity;BME280_pressure;Samples;Min_cycle;Max_cycle;Signal;HPM_P1;HPM_P2
2022/05/29 00:00:15;;;;;;;18.63;8.60;;;359.30;2329.60;;;;;;5010968;28;20042;-55
2022/05/29 00:02:41;;;;;;;14.20;8.02;;;359.30;2329.60;;;;;;5011030;28;20034;-53
2022/05/29 00:05:09;;;;;;;13.93;7.03;;;359.20;2329.60;;;;;;5011204;28;20030;-55
2022/05/29 00:07:35;;;;;;;14.18;6.85;;;359.30;2329.60;;;;;;5010596;28;20022;-56
2022/05/29 00:10:05;;;;;;;15.57;8.52;;;359.30;2329.60;;;;;;5010887;28;20026;-55
2022/05/29 00:12:31;;;;;;;18.95;9.00;;;359.20;2329.60;;;;;;5010726;28;20495;-55
2022/05/29 00:14:57;;;;;;;15.57;7.85;;;359.20;2329.60;;;;;;5010825;28;20037;-56
2022/05/29 00:17:23;;;;;;;14.05;7.65;;;359.30;2329.60;;;;;;5010735;28;20026;-55
2022/05/29 00:19:49;;;;;;;15.95;7.25;;;359.30;2329.60;;;;;;5010916;28;20041;-56
2022/05/29 00:22:20;;;;;;;15.38;7.40;;;359.20;2329.60;;;;;;5010602;28;20030;-56
2022/05/29 00:24:48;;;;;;;14.52;7.40;;;359.30;2329.60;;;;;;5010264;28;20105;-54
2022/05/29 00:27:16;;;;;;;14.75;8.43;;;359.30;2329.60;;;;;;5010569;28;20069;-56
2022/05/29 00:29:43;;;;;;;15.43;7.47;;;359.30;2329.60;;;;;;5010547;28;20069;-57
2022/05/29 00:32:09;;;;;;;15.90;8.05;;;359.30;2329.60;;;;;;5010054;28;20026;-56
2022/05/29 00:34:35;;;;;;;20.27;8.23;;;359.30;2329.60;;;;;;5010693;28;20376;-56
2022/05/29 00:37:06;;;;;;;15.95;7.82;;;359.30;2329.60;;;;;;5010476;28;20464;-56
2022/05/29 00:39:31;;;;;;;15.25;7.82;;;358.90;2329.60;;;;;;5010632;28;20033;-56
2022/05/29 00:41:58;;;;;;;15.52;8.90;;;359.00;2329.60;;;;;;5010597;28;20030;-55
2022/05/29 00:44:32;;;;;;;16.20;8.00;;;359.00;2329.60;;;;;;5010304;28;20460;-55
2022/05/29 00:47:01;;;;;;;19.08;8.43;;;359.10;2329.60;;;;;;5010531;28;20138;-54
2022/05/29 00:49:31;;;;;;;17.40;7.45;;;359.00;2329.60;;;;;;5010449;28;20033;-56
2022/05/29 00:52:17;;;;;;;14.48;8.32;;;359.00;2329.60;;;;;;5010095;28;20033;-57
2022/05/29 00:54:55;;;;;;;16.98;7.47;;;359.00;2329.60;;;;;;5009877;28;20105;-56
2022/05/29 00:57:30;;;;;;;15.85;7.63;;;359.00;2329.60;;;;;;5010607;28;20392;-56
2022/05/29 00:59:59;;;;;;;16.65;8.07;;;359.00;2329.60;;;;;;5010196;28;20480;-56
2022/05/29 01:02:25;;;;;;;14.23;6.93;;;359.00;2329.60;;;;;;5009986;28;20025;-55
2022/05/29 01:04:51;;;;;;;15.75;7.25;;;359.00;2329.60;;;;;;5009853;28;20395;-55
2022/05/29 01:07:19;;;;;;;16.92;7.75;;;359.10;2329.60;;;;;;5009893;28;20515;-56
2022/05/29 01:09:47;;;;;;;15.05;7.50;;;359.10;2329.60;;;;;;5010070;28;20022;-56
2022/05/29 01:12:42;;;;;;;15.38;8.30;;;359.00;2329.60;;;;;;5010967;28;20472;-56
2022/05/29 01:15:08;;;;;;;13.50;6.28;;;359.20;2329.60;;;;;;4985243;28;20042;-57
2022/05/29 01:17:42;;;;;;;14.00;6.55;;;359.20;2329.60;;;;;;4996703;28;20022;-56
2022/05/29 01:20:36;;;;;;;13.85;6.55;;;359.20;2329.60;;;;;;5014295;28;20425;-56
2022/05/29 01:23:19;;;;;;;13.57;7.32;;;359.10;2329.60;;;;;;5013996;28;20022;-56
2022/05/29 01:26:03;;;;;;;13.75;6.43;;;359.00;2329.60;;;;;;5013719;28;20115;-56
2022/05/29 01:28:47;;;;;;;;;;;359.00;2329.60;;;;;;5014852;28;20030;-56
2022/05/29 01:31:18;;;;;;;12.63;6.70;;;359.10;2329.60;;;;;;5013857;28;19905;-55
2022/05/29 01:34:06;;;;;;;16.42;8.05;;;359.00;2329.60;;;;;;5013666;28;20076;-56
2022/05/29 01:36:54;;;;;;;15.35;7.55;;;358.90;2329.60;;;;;;5013849;28;20411;-57
2022/05/29 01:39:29;;;;;;;16.05;6.78;;;359.00;2329.60;;;;;;5002472;28;20528;-57
2022/05/29 01:41:58;;;;;;;15.07;6.55;;;359.00;2329.60;;;;;;5013578;28;20372;-53
2022/05/29 01:44:29;;;;;;;12.50;5.57;;;359.10;2329.60;;;;;;5013390;28;20025;-55
2022/05/29 01:47:02;;;;;;;15.43;7.22;;;359.10;2329.60;;;;;;5013440;28;20025;-54
2022/05/29 01:49:29;;;;;;;;;;;359.00;2329.60;;;;;;5014304;28;20022;-56
2022/05/29 01:52:05;;;;;;;13.30;7.25;;;359.00;2329.60;;;;;;5013385;28;19955;-56
2022/05/29 01:54:38;;;;;;;11.73;7.43;;;359.00;2329.60;;;;;;5012798;28;20034;-55
2022/05/29 01:57:19;;;;;;;18.15;7.78;;;359.00;2329.60;;;;;;5013358;28;20033;-55
2022/05/29 02:00:12;;;;;;;15.38;7.20;;;359.20;2329.60;;;;;;5013061;28;20030;-53
2022/05/29 02:02:51;;;;;;;13.48;7.07;;;359.10;2329.60;;;;;;4914851;29;20055;-55
2022/05/29 02:05:30;;;;;;;15.13;7.70;;;359.00;2329.60;;;;;;4914649;29;20078;-55
2022/05/29 02:08:22;;;;;;;14.60;7.38;;;359.00;2329.60;;;;;;4914593;29;20040;-55
2022/05/29 02:10:59;;;;;;;13.98;6.65;;;359.00;2329.60;;;;;;4914780;29;20178;-53
2022/05/29 02:13:47;;;;;;;13.48;6.85;;;359.10;2329.60;;;;;;4914454;29;20091;-54
2022/05/29 02:16:22;;;;;;;13.05;6.47;;;359.10;2329.60;;;;;;4914501;29;20379;-52
2022/05/29 02:18:59;;;;;;;13.82;8.15;;;359.00;2329.60;;;;;;4914571;29;20034;-56
2022/05/29 02:21:46;;;;;;;15.05;7.15;;;359.10;2329.60;;;;;;4914695;29;20079;-55
2022/05/29 02:24:15;;;;;;;10.90;6.50;;;359.10;2329.60;;;;;;4913147;29;20055;-55
2022/05/29 02:26:48;;;;;;;13.98;7.32;;;359.10;2329.60;;;;;;4899197;29;20063;-56
2022/05/29 02:29:14;;;;;;;16.15;8.65;;;359.10;2329.60;;;;;;4895230;29;20551;-54
2022/05/29 02:32:14;;;;;;;14.88;7.68;;;359.10;2329.60;;;;;;4895544;29;20039;-55
2022/05/29 02:35:07;;;;;;;20.48;8.77;;;359.00;2329.60;;;;;;4895461;29;20115;-55
2022/05/29 02:37:39;;;;;;;16.58;7.43;;;359.00;2329.60;;;;;;4894917;29;20033;-56
2022/05/29 02:40:12;;;;;;;19.17;6.80;;;358.80;2329.60;;;;;;4962662;28;20054;-55
2022/05/29 02:43:02;;;;;;;18.53;8.27;;;358.80;2329.60;;;;;;4993045;28;20487;-55
2022/05/29 02:45:28;;;;;;;11.98;7.13;;;358.60;2329.60;;;;;;4992811;28;20311;-57
2022/05/29 02:48:04;;;;;;;14.05;7.82;;;358.70;2329.60;;;;;;4992735;28;20022;-57
2022/05/29 02:50:39;;;;;;;13.82;6.88;;;358.80;2329.60;;;;;;4992995;28;20424;-56
2022/05/29 02:53:13;;;;;;;14.63;7.68;;;358.80;2329.60;;;;;;4992452;28;20047;-57
2022/05/29 02:55:41;;;;;;;13.52;7.05;;;359.00;2329.60;;;;;;4992711;28;20038;-55
2022/05/29 02:58:20;;;;;;;15.55;7.57;;;359.00;2329.60;;;;;;4992846;28;20031;-56
2022/05/29 03:01:24;;;;;;;14.73;7.63;;;359.00;2329.60;;;;;;4992519;28;20038;-54
2022/05/29 03:04:10;;;;;;;13.07;6.70;;;358.80;2329.60;;;;;;4895054;29;20037;-55
2022/05/29 03:06:42;;;;;;;15.68;7.00;;;358.80;2329.60;;;;;;4894720;29;20505;-56
2022/05/29 03:09:18;;;;;;;13.65;6.38;;;358.80;2329.60;;;;;;4894663;29;20120;-56
2022/05/29 03:11:46;;;;;;;12.75;5.93;;;358.80;2329.60;;;;;;4894545;29;20032;-55
2022/05/29 03:14:32;;;;;;;14.38;6.43;;;358.50;2329.60;;;;;;4894764;29;20044;-57
2022/05/29 03:17:11;;;;;;;15.68;7.38;;;358.50;1996.80;;;;;;4895056;29;20036;-55
2022/05/29 03:19:51;;;;;;;12.02;6.53;;;358.50;2329.60;;;;;;4894413;29;20057;-56
2022/05/29 03:22:58;;;;;;;12.13;6.43;;;358.40;2329.60;;;;;;4894547;29;20037;-56
2022/05/29 03:25:44;;;;;;;13.73;6.82;;;333.70;2329.60;;;;;;4825238;29;20083;-56
2022/05/29 03:28:26;;;;;;;12.13;6.72;;;358.50;2329.60;;;;;;4838815;29;20465;-55
2022/05/29 03:30:54;;;;;;;13.80;6.63;;;358.50;2329.60;;;;;;4838813;29;20045;-54
2022/05/29 03:33:20;;;;;;;12.48;7.07;;;358.50;2329.60;;;;;;4838910;29;20038;-56
2022/05/29 03:36:03;;;;;;;11.65;6.53;;;358.40;2329.60;;;;;;4837901;29;20065;-56
2022/05/29 03:38:29;;;;;;;13.50;6.45;;;358.40;2329.60;;;;;;4850225;29;20036;-56
2022/05/29 03:40:56;;;;;;;12.73;5.90;;;358.40;2329.60;;;;;;4912936;29;20499;-56
2022/05/29 03:43:22;;;;;;;14.32;6.97;;;333.70;2329.60;;;;;;4913393;29;20103;-56
2022/05/29 03:45:47;;;;;;;13.32;5.80;;;358.40;2329.60;;;;;;4912955;29;20101;-57
2022/05/29 03:48:13;;;;;;;13.57;6.40;;;358.40;2329.60;;;;;;4912709;29;20115;-55
2022/05/29 03:50:39;;;;;;;14.27;5.47;;;358.40;2329.60;;;;;;4912860;29;20573;-57
2022/05/29 03:53:05;;;;;;;10.18;5.50;;;358.40;2329.60;;;;;;4912481;29;20045;-55
2022/05/29 03:55:32;;;;;;;11.07;5.78;;;358.50;2329.60;;;;;;4912845;29;20067;-55
2022/05/29 03:57:58;;;;;;;11.88;6.53;;;358.50;2329.60;;;;;;4912539;29;20031;-56
2022/05/29 04:00:25;;;;;;;13.20;6.38;;;358.40;2329.60;;;;;;4913660;28;20523;-56
2022/05/29 04:02:51;;;;;;;11.55;6.53;;;358.40;2329.60;;;;;;4991621;28;20480;-56
2022/05/29 04:05:20;;;;;;;11.60;5.85;;;358.50;2329.60;;;;;;4991029;28;20035;-57
2022/05/29 04:13:18;;;;;;;14.15;7.10;;;358.80;2329.60;;;;;;4991646;28;20385;-57
2022/05/29 04:15:47;;;;;;;17.38;7.20;;;358.80;2329.60;;;;;;4990997;28;20022;-58
2022/05/29 04:18:15;;;;;;;12.20;6.28;;;358.80;2329.60;;;;;;4991163;28;20045;-57
2022/05/29 04:20:42;;;;;;;12.88;6.07;;;358.90;2329.60;;;;;;4991423;28;20038;-56
2022/05/29 04:23:08;;;;;;;18.27;7.15;;;358.80;2329.60;;;;;;4991261;28;20022;-56
2022/05/29 04:25:33;;;;;;;14.27;6.63;;;358.90;2329.60;;;;;;4997463;28;20050;-54
2022/05/29 04:28:01;;;;;;;15.55;7.18;;;358.90;2329.60;;;;;;5010876;28;20040;-56
2022/05/29 04:30:27;;;;;;;13.95;6.78;;;358.90;2329.60;;;;;;5010535;28;20460;-56
2022/05/29 04:32:59;;;;;;;14.82;6.70;;;359.00;2329.60;;;;;;5010479;28;20033;-54
2022/05/29 04:35:27;;;;;;;12.18;6.03;;;359.00;2329.60;;;;;;5010622;28;20032;-56
2022/05/29 04:37:53;;;;;;;14.13;6.72;;;359.10;2329.60;;;;;;5010340;28;20057;-56
2022/05/29 04:40:18;;;;;;;17.77;7.07;;;359.20;2329.60;;;;;;5010128;28;20064;-56
2022/05/29 04:42:44;;;;;;;13.38;7.50;;;359.30;2329.60;;;;;;5010214;28;20026;-57
2022/05/29 04:45:11;;;;;;;17.05;8.05;;;359.30;2329.60;;;;;;5010603;28;20080;-56
2022/05/29 04:47:37;;;;;;;17.35;7.78;;;359.30;2329.60;;;;;;5009530;28;20041;-56
2022/05/29 04:50:03;;;;;;;13.00;6.55;;;359.10;2329.60;;;;;;5010539;28;20029;-55
2022/05/29 04:52:29;;;;;;;19.27;7.30;;;359.30;2329.60;;;;;;5010467;28;20026;-56
2022/05/29 04:54:55;;;;;;;12.40;6.55;;;384.00;2329.60;;;;;;5010051;28;20088;-56
2022/05/29 04:57:21;;;;;;;12.65;6.38;;;384.20;2329.60;;;;;;5010282;28;20034;-57
2022/05/29 04:59:46;;;;;;;14.82;6.95;;;384.30;2329.60;;;;;;5010067;28;20175;-52
2022/05/29 05:02:12;;;;;;;13.85;6.40;;;384.30;2329.60;;;;;;5010018;28;20026;-54
2022/05/29 05:04:38;;;;;;;14.02;6.95;;;384.40;2329.60;;;;;;5010313;28;20076;-55
2022/05/29 05:07:04;;;;;;;10.55;5.28;;;384.60;2329.60;;;;;;5010130;28;20116;-56
2022/05/29 05:09:30;;;;;;;11.30;6.00;;;384.70;2329.60;;;;;;5010159;28;20387;-55
2022/05/29 05:11:57;;;;;;;11.45;5.00;;;384.70;2329.60;;;;;;5010032;28;20494;-56
2022/05/29 05:14:24;;;;;;;11.63;5.38;;;384.90;2329.60;;;;;;5009992;28;20165;-55
2022/05/29 05:16:52;;;;;;;10.13;6.00;;;409.70;2355.20;;;;;;5010072;28;20030;-55
2022/05/29 05:19:19;;;;;;;13.82;5.35;;;410.20;2355.20;;;;;;5009908;28;20029;-56
2022/05/29 05:21:45;;;;;;;9.30;4.78;;;435.50;2355.20;;;;;;5009598;28;20476;-54
2022/05/29 05:24:11;;;;;;;9.20;4.90;;;460.90;2380.80;;;;;;5009895;28;20088;-54
2022/05/29 05:26:38;;;;;;;9.15;4.60;;;589.60;2278.40;;;;;;5009616;28;20057;-55
2022/05/29 05:29:04;;;;;;;7.47;4.85;;;615.10;1894.40;;;;;;5009911;28;20036;-58
2022/05/29 05:31:30;;;;;;;7.13;4.25;;;665.60;1843.20;;;;;;5010207;28;20101;-57
2022/05/29 05:33:56;;;;;;;7.95;4.50;;;615.20;1868.80;;;;;;5009846;28;20468;-58
2022/05/29 05:36:22;;;;;;;7.00;4.15;;;665.70;1766.40;;;;;;5009932;28;20032;-56
2022/05/29 05:38:48;;;;;;;4.45;2.78;;;640.60;1740.80;;;;;;5009796;28;20491;-56
2022/05/29 05:41:14;;;;;;;5.35;3.60;;;691.20;1638.40;;;;;;5009764;28;20547;-57
2022/05/29 05:43:41;;;;;;;5.22;3.30;;;691.40;1638.40;;;;;;5015351;28;20029;-57
2022/05/29 05:46:08;;;;;;;5.43;2.88;;;614.80;1766.40;;;;;;5018506;28;20029;-57
2022/05/29 05:48:34;;;;;;;7.03;2.90;;;564.10;1945.60;;;;;;5018880;28;20468;-58
2022/05/29 05:51:00;;;;;;;8.65;3.38;;;563.40;2048.00;;;;;;5016685;28;20038;-58
2022/05/29 05:53:26;;;;;;;6.90;3.28;;;538.10;2073.60;;;;;;5016984;28;20116;-57
2022/05/29 05:55:52;;;;;;;5.38;3.78;;;512.80;2201.60;;;;;;5027890;28;20167;-55
2022/05/29 05:58:18;;;;;;;6.63;3.60;;;512.10;2380.80;;;;;;5030341;28;20467;-56
2022/05/29 06:00:46;;;;;;;8.48;3.53;;;486.90;2380.80;;;;;;5026317;28;20136;-54
2022/05/29 06:03:12;;;;;;;8.57;3.90;;;486.70;2380.80;;;;;;5019608;28;20026;-56
2022/05/29 06:05:38;;;;;;;6.05;4.07;;;461.70;2380.80;;;;;;5022506;28;20025;-54
2022/05/29 06:08:04;;;;;;;8.35;3.95;;;461.30;2380.80;;;;;;5021972;28;20032;-57
2022/05/29 06:10:30;;;;;;;7.22;4.07;;;461.10;2380.80;;;;;;5017033;28;20033;-59
2022/05/29 06:13:04;;;;;;;6.95;3.80;;;436.10;2355.20;;;;;;5018128;28;20025;-56
2022/05/29 06:15:30;;;;;;;8.48;4.25;;;436.00;2355.20;;;;;;5017471;28;20030;-56
2022/05/29 06:17:56;;;;;;;6.88;4.43;;;435.70;2355.20;;;;;;5018420;28;20024;-60
2022/05/29 06:20:24;;;;;;;5.90;3.97;;;435.60;2355.20;;;;;;5020749;28;20065;-59
2022/05/29 06:22:50;;;;;;;7.03;4.63;;;435.50;2355.20;;;;;;5017973;28;20539;-58
2022/05/29 06:25:17;;;;;;;7.20;3.97;;;435.40;2355.20;;;;;;5017791;28;20072;-56
2022/05/29 06:27:44;;;;;;;9.13;4.30;;;435.30;2355.20;;;;;;5018816;28;20018;-58
2022/05/29 06:30:14;;;;;;;9.32;4.63;;;435.20;2355.20;;;;;;5016757;28;20026;-55
2022/05/29 06:32:40;;;;;;;7.43;3.88;;;410.20;2355.20;;;;;;5020609;28;20057;-56
2022/05/29 06:35:10;;;;;;;15.65;7.95;;;410.30;2355.20;;;;;;5022113;28;20026;-56
2022/05/29 06:37:40;;;;;;;9.95;6.68;;;410.20;2355.20;;;;;;5020835;28;20482;-56
2022/05/29 06:40:07;;;;;;;7.20;4.97;;;410.40;2355.20;;;;;;5019747;28;20053;-57
2022/05/29 06:42:33;;;;;;;10.15;5.75;;;410.20;2355.20;;;;;;5017762;28;20060;-57
2022/05/29 06:45:01;;;;;;;10.38;5.68;;;410.00;2355.20;;;;;;5016595;28;20057;-55
2022/05/29 06:47:27;;;;;;;10.75;6.63;;;409.90;2355.20;;;;;;5017614;28;20065;-59
2022/05/29 06:49:53;;;;;;;7.93;4.75;;;410.00;2355.20;;;;;;5021643;28;20045;-57
2022/05/29 06:52:19;;;;;;;18.30;9.48;;;410.20;2355.20;;;;;;5021140;28;20476;-57
2022/05/29 06:54:46;;;;;;;10.00;6.05;;;410.20;2355.20;;;;;;5013503;28;20033;-58
2022/05/29 06:57:13;;;;;;;10.15;5.88;;;410.20;2355.20;;;;;;5017157;28;20403;-56
2022/05/29 07:08:01;;;;;;;11.00;5.35;;;410.20;2355.20;;;;;;5032193;28;20057;-54
2022/05/29 07:10:29;;;;;;;8.35;4.72;;;410.30;2355.20;;;;;;5014132;28;20056;-55
2022/05/29 07:12:56;;;;;;;8.40;4.65;;;410.20;2355.20;;;;;;5012205;28;20030;-56
2022/05/29 07:15:22;;;;;;;7.82;4.70;;;410.20;2355.20;;;;;;5016625;28;20032;-53
2022/05/29 07:17:48;;;;;;;10.45;4.68;;;410.20;2355.20;;;;;;5020649;28;20100;-55
2022/05/29 07:20:16;;;;;;;13.30;7.80;;;410.20;2355.20;;;;;;5020397;28;20049;-53
2022/05/29 07:22:43;;;;;;;12.65;7.18;;;409.90;2355.20;;;;;;5018311;28;20033;-54
2022/05/29 07:25:11;;;;;;;7.78;5.10;;;410.20;2355.20;;;;;;5020695;28;20038;-55
2022/05/29 07:27:38;;;;;;;7.25;4.65;;;410.30;2355.20;;;;;;5016582;28;20061;-56
2022/05/29 07:30:06;;;;;;;5.43;3.20;;;410.10;2355.20;;;;;;5017601;28;20049;-57
2022/05/29 07:32:32;;;;;;;6.95;3.83;;;409.90;2355.20;;;;;;5014063;28;20025;-57
2022/05/29 07:34:58;;;;;;;6.40;3.22;;;410.00;2355.20;;;;;;5011746;28;20045;-56
2022/05/29 07:37:24;;;;;;;6.32;3.88;;;410.10;2355.20;;;;;;5011511;28;20021;-54
2022/05/29 07:39:52;;;;;;;6.50;3.40;;;409.90;2355.20;;;;;;5011365;28;20045;-56
2022/05/29 07:45:05;;;;;;;5.07;3.13;;;409.70;2355.20;;;;;;5011577;28;20494;-56
2022/05/29 07:47:40;;;;;;;5.68;2.60;;;409.70;2355.20;;;;;;5011305;28;20034;-57
2022/05/29 07:50:09;;;;;;;5.53;3.50;;;409.90;2355.20;;;;;;5021001;28;20059;-53
2022/05/29 07:52:35;;;;;;;5.15;3.33;;;410.00;2355.20;;;;;;5030668;28;20033;-57
2022/05/29 07:55:01;;;;;;;6.43;3.53;;;410.00;2355.20;;;;;;5030756;28;20022;-56
2022/05/29 07:57:26;;;;;;;7.18;3.35;;;410.10;2355.20;;;;;;5012855;28;20085;-57
2022/05/29 07:59:52;;;;;;;4.78;2.83;;;410.30;2355.20;;;;;;4990079;28;20476;-56
2022/05/29 08:02:18;;;;;;;5.13;2.70;;;410.30;2355.20;;;;;;4989953;28;20044;-55
2022/05/29 08:04:45;;;;;;;6.45;2.72;;;410.50;2355.20;;;;;;4995330;28;20438;-54
2022/05/29 08:07:15;;;;;;;4.07;2.55;;;435.40;2355.20;;;;;;5006510;28;20460;-57
2022/05/29 08:09:41;;;;;;;3.58;2.50;;;436.10;2355.20;;;;;;5017002;28;20026;-54
2022/05/29 08:12:08;;;;;;;3.35;2.10;;;461.10;2380.80;;;;;;4999894;28;20064;-54
2022/05/29 08:14:34;;;;;;;7.25;1.88;;;461.30;2380.80;;;;;;5009563;28;20044;-57
2022/05/29 08:17:00;;;;;;;2.50;1.90;;;486.40;2380.80;;;;;;5009207;28;20037;-58
2022/05/29 08:19:26;;;;;;;3.53;2.20;;;487.10;2380.80;;;;;;5026086;28;20033;-55
2022/05/29 08:21:52;;;;;;;2.85;1.90;;;512.90;2380.80;;;;;;5010522;28;20036;-53
2022/05/29 08:32:30;;;;;;;4.72;2.75;;;589.10;1996.80;;;;;;5013472;28;20576;-56
2022/05/29 08:34:56;;;;;;;4.45;2.80;;;589.40;1920.00;;;;;;4998213;28;20038;-53
2022/05/29 08:37:21;;;;;;;5.70;2.90;;;614.50;1817.60;;;;;;5001316;28;20036;-56
2022/05/29 08:39:47;;;;;;;3.92;2.47;;;614.60;1868.80;;;;;;5008978;28;20125;-56
2022/05/29 08:42:15;;;;;;;5.43;2.58;;;614.40;1792.00;;;;;;5008488;28;20484;-53
2022/05/29 08:44:49;;;;;;;3.70;2.45;;;589.10;1817.60;;;;;;5005124;28;20026;-51
2022/05/29 08:47:20;;;;;;;4.55;2.60;;;589.20;1843.20;;;;;;5007984;28;20028;-56
2022/05/29 08:49:48;;;;;;;3.33;1.95;;;614.40;1792.00;;;;;;4988998;28;20106;-54
2022/05/29 08:52:44;;;;;;;2.47;1.88;;;589.40;1740.80;;;;;;4989093;28;20042;-53
2022/05/29 08:55:42;;;;;;;3.10;2.17;;;589.00;1766.40;;;;;;4990377;28;20092;-55
2022/05/29 08:58:32;;;;;;;5.82;2.10;;;564.10;1766.40;;;;;;5001688;28;20434;-54
2022/05/29 09:01:10;;;;;;;3.60;2.45;;;614.40;1792.00;;;;;;5008543;28;20696;-56
2022/05/29 09:03:42;;;;;;;2.78;2.03;;;589.50;1715.20;;;;;;5003468;28;20440;-57
2022/05/29 09:06:18;;;;;;;3.95;2.42;;;589.40;1740.80;;;;;;5007035;28;20117;-55
2022/05/29 09:09:10;;;;;;;3.50;2.50;;;588.90;1817.60;;;;;;4996972;28;20420;-55
2022/05/29 09:11:54;;;;;;;3.83;2.22;;;564.10;1792.00;;;;;;4959128;28;20105;-55
2022/05/29 09:14:45;;;;;;;3.17;2.10;;;563.70;1843.20;;;;;;5008430;28;20026;-55
2022/05/29 09:17:16;;;;;;;4.00;2.28;;;564.10;1792.00;;;;;;5008428;28;20460;-54
2022/05/29 09:19:47;;;;;;;3.55;2.45;;;589.70;1740.80;;;;;;5008663;28;20038;-55
2022/05/29 09:22:34;;;;;;;3.53;2.72;;;589.50;1766.40;;;;;;5008457;28;20560;-56
2022/05/29 09:25:27;;;;;;;3.55;2.00;;;589.60;1740.80;;;;;;5008180;28;20037;-55
2022/05/29 09:27:53;;;;;;;3.08;1.70;;;564.00;1766.40;;;;;;5008404;28;20121;-55
2022/05/29 09:30:19;;;;;;;2.55;1.70;;;563.60;1766.40;;;;;;5008484;28;20098;-55
2022/05/29 09:32:56;;;;;;;2.25;1.63;;;563.60;1766.40;;;;;;5012372;28;20053;-54
2022/05/29 09:35:58;;;;;;;4.47;1.80;;;538.50;1715.20;;;;;;4992785;28;20077;-55
2022/05/29 09:38:31;;;;;;;3.03;1.95;;;537.60;1817.60;;;;;;4992414;28;20607;-55
2022/05/29 09:41:07;;;;;;;3.45;1.95;;;537.70;1868.80;;;;;;5004760;28;20488;-55
2022/05/29 09:43:33;;;;;;;4.68;2.08;;;537.60;1817.60;;;;;;5019254;28;20029;-56
2022/05/29 09:46:39;;;;;;;3.55;2.20;;;512.30;1894.40;;;;;;5022000;28;20033;-55
2022/05/29 09:52:07;;;;;;;3.78;2.08;;;486.80;1996.80;;;;;;4941740;29;20873;-54
2022/05/29 09:54:37;;;;;;;4.25;1.80;;;487.00;2022.40;;;;;;4941869;29;20281;-54
2022/05/29 09:57:20;;;;;;;6.03;2.50;;;486.90;1996.80;;;;;;4940801;29;20032;-56
2022/05/29 09:59:49;;;;;;;2.78;1.85;;;486.60;2073.60;;;;;;4939893;29;20083;-55
2022/05/29 10:02:36;;;;;;;4.07;2.15;;;486.40;2099.20;;;;;;4933117;28;20516;-54
2022/05/29 10:05:02;;;;;;;4.18;2.20;;;461.60;2227.20;;;;;;4939198;29;20059;-54
2022/05/29 10:07:31;;;;;;;4.20;2.45;;;486.40;2176.00;;;;;;4935884;29;20577;-55
2022/05/29 10:10:08;;;;;;;6.20;2.90;;;486.40;2252.80;;;;;;4930487;29;20312;-55
2022/05/29 10:12:41;;;;;;;3.78;2.35;;;461.30;2355.20;;;;;;4931646;29;20092;-55
2022/05/29 10:15:36;;;;;;;4.15;2.60;;;461.30;2380.80;;;;;;4931582;29;20039;-56
2022/05/29 10:18:11;;;;;;;3.97;2.20;;;461.10;2380.80;;;;;;4929979;29;20039;-55
2022/05/29 10:20:42;;;;;;;7.30;2.72;;;461.20;2380.80;;;;;;4981684;28;20101;-56
2022/05/29 10:23:09;;;;;;;3.70;2.40;;;461.30;2380.80;;;;;;4991922;28;20041;-55
2022/05/29 10:25:52;;;;;;;3.88;2.55;;;461.10;2380.80;;;;;;4991500;28;20065;-55
2022/05/29 10:28:18;;;;;;;4.15;2.63;;;460.80;2380.80;;;;;;4992085;28;20102;-54
2022/05/29 10:30:57;;;;;;;6.22;2.95;;;460.80;2380.80;;;;;;4991469;28;20559;-56
2022/05/29 10:33:26;;;;;;;5.95;2.53;;;436.00;2355.20;;;;;;5002530;28;20034;-55
2022/05/29 10:36:10;;;;;;;6.22;2.75;;;435.80;2355.20;;;;;;5013785;28;20480;-54
2022/05/29 10:38:36;;;;;;;3.53;2.22;;;435.90;2355.20;;;;;;5011046;28;20384;-55
2022/05/29 10:41:04;;;;;;;4.43;2.83;;;435.90;2355.20;;;;;;5010986;28;20061;-54
2022/05/29 10:43:33;;;;;;;8.10;4.15;;;436.10;2355.20;;;;;;5010882;28;20037;-57
2022/05/29 10:46:05;;;;;;;7.68;4.82;;;460.90;2380.80;;;;;;5008602;28;20029;-56
2022/05/29 10:48:49;;;;;;;9.30;4.25;;;461.40;2380.80;;;;;;5011027;28;20147;-55
2022/05/29 10:51:45;;;;;;;5.80;3.47;;;461.70;2380.80;;;;;;5010550;28;20022;-58
2022/05/29 10:54:29;;;;;;;4.78;3.35;;;486.80;2380.80;;;;;;5011067;28;20034;-54
2022/05/29 10:57:22;;;;;;;5.60;3.08;;;512.00;2380.80;;;;;;5010298;28;20030;-54
2022/05/29 11:00:13;;;;;;;5.05;3.05;;;512.90;2380.80;;;;;;5010718;28;20124;-54
2022/05/29 11:03:17;;;;;;;6.20;3.28;;;538.00;2406.40;;;;;;5016121;28;20157;-56
2022/05/29 11:06:01;;;;;;;3.90;2.08;;;538.00;2406.40;;;;;;4949406;29;20024;-55
2022/05/29 11:08:27;;;;;;;5.07;2.70;;;538.30;2227.20;;;;;;4949774;29;20039;-54
2022/05/29 11:11:10;;;;;;;4.60;3.20;;;538.30;2355.20;;;;;;4949416;29;20031;-56
2022/05/29 11:13:45;;;;;;;;;;;512.90;2380.80;;;;;;4949964;29;20426;-55
2022/05/29 11:16:25;;;;;;;8.63;3.80;;;512.50;2380.80;;;;;;4949908;29;19913;-55
2022/05/29 11:19:07;;;;;;;4.45;2.47;;;512.10;2380.80;;;;;;4949988;29;20035;-56
2022/05/29 11:21:56;;;;;;;5.45;3.22;;;512.60;2380.80;;;;;;4949680;29;20047;-54
2022/05/29 11:25:00;;;;;;;4.95;2.75;;;487.00;2380.80;;;;;;4949047;29;20031;-55
2022/05/29 11:27:31;;;;;;;4.38;2.78;;;487.10;2380.80;;;;;;4949382;29;20058;-54
2022/05/29 11:30:08;;;;;;;4.32;2.65;;;486.90;2380.80;;;;;;4937023;29;20035;-54
2022/05/29 11:32:34;;;;;;;3.95;2.78;;;486.80;2380.80;;;;;;4930170;29;20508;-56
2022/05/29 11:35:10;;;;;;;4.40;2.50;;;486.50;2380.80;;;;;;4938520;29;20062;-55
2022/05/29 11:37:49;;;;;;;5.80;3.13;;;461.70;2380.80;;;;;;4948805;29;20062;-55
2022/05/29 11:40:25;;;;;;;4.65;3.03;;;461.60;2380.80;;;;;;4984762;28;20050;-55
2022/05/29 11:43:18;;;;;;;3.72;2.72;;;461.60;2380.80;;;;;;5009968;28;20036;-54
2022/05/29 11:51:32;;;;;;;4.90;3.20;;;461.10;2380.80;;;;;;5016304;28;20072;-55
2022/05/29 11:54:18;;;;;;;4.10;2.70;;;461.60;2380.80;;;;;;5018116;28;20032;-54
2022/05/29 11:56:51;;;;;;;8.85;3.30;;;461.30;2380.80;;;;;;5019445;28;20411;-54
2022/05/29 11:59:55;;;;;;;6.55;3.25;;;460.90;2380.80;;;;;;5019576;28;20027;-54
2022/05/29 12:02:59;;;;;;;7.10;3.72;;;461.20;2380.80;;;;;;5020897;28;20045;-54
2022/05/29 12:05:40;;;;;;;4.43;3.05;;;460.90;2380.80;;;;;;4938348;29;20123;-54
2022/05/29 12:08:24;;;;;;;6.68;3.75;;;460.80;2380.80;;;;;;4930279;29;20529;-56
2022/05/29 12:10:57;;;;;;;5.50;3.10;;;460.90;2380.80;;;;;;4935770;29;20039;-54
2022/05/29 12:13:30;;;;;;;5.63;3.58;;;460.90;2380.80;;;;;;4939406;29;20453;-57
2022/05/29 12:16:08;;;;;;;12.00;4.15;;;460.80;2380.80;;;;;;4938638;29;20039;-56
2022/05/29 12:18:47;;;;;;;6.28;3.97;;;436.00;2355.20;;;;;;4940293;29;20050;-56
2022/05/29 12:21:17;;;;;;;10.30;5.43;;;436.00;2355.20;;;;;;4948558;29;20580;-56
2022/05/29 12:23:51;;;;;;;7.53;3.72;;;435.90;2355.20;;;;;;4948494;29;20027;-55
2022/05/29 12:26:41;;;;;;;5.97;4.05;;;435.40;2355.20;;;;;;4960465;28;20053;-55
2022/05/29 12:29:10;;;;;;;6.78;3.65;;;435.70;2355.20;;;;;;4953032;28;20046;-56
2022/05/29 12:31:40;;;;;;;7.75;3.85;;;435.70;2355.20;;;;;;4948204;29;20027;-55
2022/05/29 12:34:14;;;;;;;6.75;4.20;;;435.70;2355.20;;;;;;4948197;29;20031;-57
2022/05/29 12:37:00;;;;;;;6.53;3.67;;;435.60;2355.20;;;;;;4948331;28;20031;-55
2022/05/29 12:40:06;;;;;;;6.20;4.15;;;435.40;2355.20;;;;;;4955091;28;20033;-56
2022/05/29 12:42:56;;;;;;;6.38;4.20;;;435.30;2355.20;;;;;;4997566;28;20064;-56
2022/05/29 12:45:45;;;;;;;7.40;3.60;;;435.40;2355.20;;;;;;4995236;28;20023;-55
2022/05/29 12:48:27;;;;;;;8.38;4.03;;;435.50;2355.20;;;;;;4997740;28;20037;-54
2022/05/29 12:51:12;;;;;;;9.55;4.68;;;435.60;2355.20;;;;;;4997799;28;20120;-55
2022/05/29 12:53:56;;;;;;;11.90;4.47;;;435.50;2355.20;;;;;;4998577;28;20259;-57
2022/05/29 12:56:31;;;;;;;6.07;3.70;;;435.90;2355.20;;;;;;4995389;28;20027;-56
2022/05/29 12:59:18;;;;;;;8.02;3.67;;;436.00;2355.20;;;;;;4996496;28;20058;-55
2022/05/29 13:02:23;;;;;;;7.35;3.65;;;461.10;2380.80;;;;;;4995645;28;20034;-59
2022/05/29 13:04:53;;;;;;;6.70;3.67;;;460.90;2380.80;;;;;;4996964;28;20037;-55
2022/05/29 13:07:22;;;;;;;6.72;3.75;;;461.10;2380.80;;;;;;4994383;28;20029;-57
2022/05/29 13:10:06;;;;;;;6.95;3.92;;;461.10;2380.80;;;;;;5003177;28;20028;-57
2022/05/29 13:12:44;;;;;;;7.50;3.65;;;461.00;2380.80;;;;;;5005370;28;20026;-55
2022/05/29 13:15:21;;;;;;;5.70;3.15;;;461.30;2380.80;;;;;;4997867;28;20072;-55
2022/05/29 13:17:47;;;;;;;6.15;3.85;;;461.40;2380.80;;;;;;5003514;28;20472;-56